sensor_id;sensor_type;location;lat;lon;timestamp;pressure;altitude;pressure_sealevel;temperature;humidity
6038;BME280;3047;42.600;23.470;2023-02-28T00:00:53;93310.94;;;7.15;100.00
6038;BME280;3047;42.600;23.470;2023-02-28T00:03:19;93265.34;;;6.78;100.00
6038;BME280;3047;42.600;23.470;2023-02-28T00:05:46;93458.28;;;7.93;100.00
6038;BME280;3047;42.600;23.470;2023-02-28T00:08:15;93466.59;;;8.00;100.00
6038;BME280;3047;42.600;23.470;2023-02-28T00:10:43;93474.16;;;7.97;100.00
6038;BME280;3047;42.600;23.470;2023-02-28T00:13:10;93474.94;;;8.04;100.00
6038;BME280;3047;42.600;23.470;2023-02-28T00:15:36;93480.75;;;8.06;100.00
6038;BME280;3047;42.600;23.470;2023-02-28T00:18:03;93473.19;;;8.10;100.00
6038;BME280;3047;42.600;23.470;2023-02-28T00:20:30;93470.53;;;8.18;100.00
6038;BME280;3047;42.600;23.470;2023-02-28T00:22:57;93465.41;;;8.27;100.00
6038;BME280;3047;42.600;23.470;2023-02-28T00:25:24;93464.50;;;8.31;100.00
6038;BME280;3047;42.600;23.470;2023-02-28T00:27:53;93311.56;;;7.34;100.00
6038;BME280;3047;42.600;23.470;2023-02-28T00:30:21;93323.97;;;7.47;100.00
6038;BME280;3047;42.600;23.470;2023-02-28T00:32:51;93417.91;;;8.04;100.00
6038;BME280;3047;42.600;23.470;2023-02-28T00:35:18;93397.19;;;7.85;100.00
6038;BME280;3047;42.600;23.470;2023-02-28T00:37:45;93452.09;;;8.19;100.00
6038;BME280;3047;42.600;23.470;2023-02-28T00:40:11;93435.38;;;8.15;100.00
6038;BME280;3047;42.600;23.470;2023-02-28T00:42:39;93377.16;;;7.78;100.00
6038;BME280;3047;42.600;23.470;2023-02-28T00:45:08;93383.94;;;7.73;100.00
6038;BME280;3047;42.600;23.470;2023-02-28T00:47:35;93448.09;;;8.04;100.00
6038;BME280;3047;42.600;23.470;2023-02-28T00:50:02;93449.53;;;8.21;100.00
6038;BME280;3047;42.600;23.470;2023-02-28T00:52:29;93445.28;;;8.27;100.00
6038;BME280;3047;42.600;23.470;2023-02-28T00:54:56;93435.44;;;8.09;100.00
6038;BME280;3047;42.600;23.470;2023-02-28T00:57:23;93400.78;;;7.67;100.00
6038;BME280;3047;42.600;23.470;2023-02-28T00:59:49;93433.09;;;7.97;100.00
6038;BME280;3047;42.600;23.470;2023-02-28T01:02:17;93442.19;;;8.07;100.00
6038;BME280;3047;42.600;23.470;2023-02-28T01:04:45;93419.94;;;7.76;100.00
6038;BME280;3047;42.600;23.470;2023-02-28T01:07:12;93444.75;;;8.04;100.00
6038;BME280;3047;42.600;23.470;2023-02-28T01:09:39;93429.97;;;7.79;100.00
6038;BME280;3047;42.600;23.470;2023-02-28T01:12:07;93390.97;;;7.48;100.00
6038;BME280;3047;42.600;23.470;2023-02-28T01:14:34;93458.25;;;7.98;100.00
6038;BME280;3047;42.600;23.470;2023-02-28T01:17:01;93464.97;;;7.96;100.00
6038;BME280;3047;42.600;23.470;2023-02-28T01:19:29;93457.34;;;8.02;100.00
6038;BME280;3047;42.600;23.470;2023-02-28T01:21:56;93449.78;;;8.04;100.00
6038;BME280;3047;42.600;23.470;2023-02-28T01:24:22;93370.81;;;7.54;100.00
6038;BME280;3047;42.600;23.470;2023-02-28T01:26:49;93445.69;;;7.93;100.00
6038;BME280;3047;42.600;23.470;2023-02-28T01:29:16;93446.41;;;8.05;100.00
6038;BME280;3047;42.600;23.470;2023-02-28T01:31:42;93455.72;;;7.98;100.00
6038;BME280;3047;42.600;23.470;2023-02-28T01:34:09;93449.19;;;7.83;100.00
6038;BME280;3047;42.600;23.470;2023-02-28T01:36:37;93428.56;;;7.55;100.00
6038;BME280;3047;42.600;23.470;2023-02-28T01:39:04;93332.03;;;7.01;100.00
6038;BME280;3047;42.600;23.470;2023-02-28T01:41:33;93444.47;;;7.59;100.00
6038;BME280;3047;42.600;23.470;2023-02-28T01:44:02;93418.09;;;7.21;100.00
6038;BME280;3047;42.600;23.470;2023-02-28T01:46:30;93441.97;;;7.56;100.00
6038;BME280;3047;42.600;23.470;2023-02-28T01:49:03;93413.69;;;7.37;100.00
6038;BME280;3047;42.600;23.470;2023-02-28T01:51:38;93446.88;;;7.68;100.00
6038;BME280;3047;42.600;23.470;2023-02-28T01:54:10;93394.78;;;7.04;100.00
6038;BME280;3047;42.600;23.470;2023-02-28T01:56:40;93408.97;;;7.11;100.00
6038;BME280;3047;42.600;23.470;2023-02-28T01:59:11;93453.13;;;7.33;100.00
6038;BME280;3047;42.600;23.470;2023-02-28T02:01:39;93407.34;;;7.04;100.00
6038;BME280;3047;42.600;23.470;2023-02-28T02:04:06;93381.66;;;6.79;100.00
6038;BME280;3047;42.600;23.470;2023-02-28T02:06:36;93439.75;;;7.28;100.00
6038;BME280;3047;42.600;23.470;2023-02-28T02:09:03;93464.75;;;7.42;100.00
6038;BME280;3047;42.600;23.470;2023-02-28T02:11:33;93374.91;;;6.85;100.00
6038;BME280;3047;42.600;23.470;2023-02-28T02:14:25;93472.28;;;7.40;100.00
6038;BME280;3047;42.600;23.470;2023-02-28T02:17:08;93468.16;;;7.38;100.00
6038;BME280;3047;42.600;23.470;2023-02-28T02:25:49;93296.47;;;5.54;100.00
6038;BME280;3047;42.600;23.470;2023-02-28T02:28:44;93459.53;;;6.74;100.00
6038;BME280;3047;42.600;23.470;2023-02-28T02:34:40;93396.22;;;6.38;100.00
6038;BME280;3047;42.600;23.470;2023-02-28T02:37:25;93430.19;;;6.76;100.00
6038;BME280;3047;42.600;23.470;2023-02-28T02:40:02;93464.34;;;6.97;100.00
6038;BME280;3047;42.600;23.470;2023-02-28T02:42:35;93454.28;;;6.99;100.00
6038;BME280;3047;42.600;23.470;2023-02-28T02:45:07;93452.66;;;6.94;100.00
6038;BME280;3047;42.600;23.470;2023-02-28T02:47:35;93261.19;;;5.85;100.00
6038;BME280;3047;42.600;23.470;2023-02-28T02:50:08;93457.50;;;7.13;100.00
6038;BME280;3047;42.600;23.470;2023-02-28T02:52:40;93465.13;;;7.05;100.00
6038;BME280;3047;42.600;23.470;2023-02-28T02:55:12;93477.59;;;7.11;100.00
6038;BME280;3047;42.600;23.470;2023-02-28T02:57:44;93477.59;;;7.11;100.00
6038;BME280;3047;42.600;23.470;2023-02-28T03:00:14;93469.31;;;7.00;100.00
6038;BME280;3047;42.600;23.470;2023-02-28T03:02:44;93488.56;;;7.03;100.00
6038;BME280;3047;42.600;23.470;2023-02-28T03:05:18;93474.47;;;6.88;100.00
6038;BME280;3047;42.600;23.470;2023-02-28T03:07:46;93496.09;;;7.04;100.00
6038;BME280;3047;42.600;23.470;2023-02-28T03:10:31;93508.63;;;7.07;100.00
6038;BME280;3047;42.600;23.470;2023-02-28T03:13:08;93484.41;;;7.02;100.00
6038;BME280;3047;42.600;23.470;2023-02-28T03:15:49;93506.91;;;7.12;100.00
6038;BME280;3047;42.600;23.470;2023-02-28T03:18:28;93502.03;;;6.96;100.00
6038;BME280;3047;42.600;23.470;2023-02-28T03:21:06;93378.03;;;6.10;100.00
6038;BME280;3047;42.600;23.470;2023-02-28T03:23:42;93511.97;;;7.05;100.00
6038;BME280;3047;42.600;23.470;2023-02-28T03:26:16;93508.59;;;7.13;100.00
6038;BME280;3047;42.600;23.470;2023-02-28T03:28:52;93494.44;;;7.00;100.00
6038;BME280;3047;42.600;23.470;2023-02-28T03:31:26;93489.41;;;7.00;100.00
6038;BME280;3047;42.600;23.470;2023-02-28T03:33:59;93459.44;;;6.80;100.00
6038;BME280;3047;42.600;23.470;2023-02-28T03:36:30;93509.50;;;7.03;100.00
6038;BME280;3047;42.600;23.470;2023-02-28T03:39:04;93512.91;;;6.98;100.00
6038;BME280;3047;42.600;23.470;2023-02-28T03:41:36;93508.66;;;7.06;100.00
6038;BME280;3047;42.600;23.470;2023-02-28T03:44:08;93510.34;;;7.01;100.00
6038;BME280;3047;42.600;23.470;2023-02-28T03:46:42;93525.53;;;6.87;100.00
6038;BME280;3047;42.600;23.470;2023-02-28T03:49:14;93534.84;;;6.68;100.00
6038;BME280;3047;42.600;23.470;2023-02-28T03:51:46;93525.75;;;6.52;100.00
6038;BME280;3047;42.600;23.470;2023-02-28T03:54:17;93490.78;;;6.30;100.00
6038;BME280;3047;42.600;23.470;2023-02-28T03:56:50;93463.28;;;6.13;100.00
6038;BME280;3047;42.600;23.470;2023-02-28T03:59:23;93382.44;;;5.68;100.00
6038;BME280;3047;42.600;23.470;2023-02-28T04:01:52;93490.69;;;6.42;100.00
6038;BME280;3047;42.600;23.470;2023-02-28T04:04:20;93518.22;;;6.52;100.00
6038;BME280;3047;42.600;23.470;2023-02-28T04:06:51;93514.84;;;6.59;100.00
6038;BME280;3047;42.600;23.470;2023-02-28T04:09:19;93516.47;;;6.69;100.00
6038;BME280;3047;42.600;23.470;2023-02-28T04:11:49;93361.59;;;5.59;100.00
6038;BME280;3047;42.600;23.470;2023-02-28T04:14:18;93387.59;;;5.30;100.00
6038;BME280;3047;42.600;23.470;2023-02-28T04:16:45;93524.28;;;6.17;100.00
6038;BME280;3047;42.600;23.470;2023-02-28T04:19:16;93470.88;;;5.97;100.00
6038;BME280;3047;42.600;23.470;2023-02-28T04:21:45;93532.56;;;6.33;100.00
6038;BME280;3047;42.600;23.470;2023-02-28T04:24:15;93532.66;;;6.16;100.00
6038;BME280;3047;42.600;23.470;2023-02-28T04:26:44;93526.81;;;6.17;100.00
6038;BME280;3047;42.600;23.470;2023-02-28T04:29:13;93531.75;;;6.28;100.00
6038;BME280;3047;42.600;23.470;2023-02-28T04:31:40;93523.44;;;6.24;100.00
6038;BME280;3047;42.600;23.470;2023-02-28T04:34:07;93537.69;;;6.13;100.00
6038;BME280;3047;42.600;23.470;2023-02-28T04:36:33;93492.59;;;6.04;100.00
6038;BME280;3047;42.600;23.470;2023-02-28T04:39:00;93535.94;;;6.26;100.00
6038;BME280;3047;42.600;23.470;2023-02-28T04:41:29;93532.59;;;6.27;100.00
6038;BME280;3047;42.600;23.470;2023-02-28T04:43:56;93493.44;;;6.00;100.00
6038;BME280;3047;42.600;23.470;2023-02-28T04:46:23;93532.69;;;6.10;100.00
6038;BME280;3047;42.600;23.470;2023-02-28T04:48:49;93495.09;;;6.01;100.00
6038;BME280;3047;42.600;23.470;2023-02-28T04:51:18;93541.00;;;6.24;100.00
6038;BME280;3047;42.600;23.470;2023-02-28T04:53:46;93507.59;;;6.16;100.00
6038;BME280;3047;42.600;23.470;2023-02-28T04:56:14;93536.81;;;6.22;100.00
6038;BME280;3047;42.600;23.470;2023-02-28T04:58:43;93544.28;;;6.34;100.00
6038;BME280;3047;42.600;23.470;2023-02-28T05:01:18;93525.88;;;6.33;100.00
6038;BME280;3047;42.600;23.470;2023-02-28T05:03:46;93397.44;;;5.73;100.00
6038;BME280;3047;42.600;23.470;2023-02-28T05:06:15;93545.00;;;6.48;100.00
6038;BME280;3047;42.600;23.470;2023-02-28T05:08:43;93407.41;;;5.79;100.00
6038;BME280;3047;42.600;23.470;2023-02-28T05:11:15;93490.69;;;6.42;100.00
6038;BME280;3047;42.600;23.470;2023-02-28T05:13:44;93489.81;;;6.47;100.00
6038;BME280;3047;42.600;23.470;2023-02-28T05:16:10;93368.97;;;5.82;100.00
6038;BME280;3047;42.600;23.470;2023-02-28T05:18:37;93552.25;;;6.97;100.00
6038;BME280;3047;42.600;23.470;2023-02-28T05:21:05;93410.72;;;6.00;100.00
6038;BME280;3047;42.600;23.470;2023-02-28T05:23:32;93552.22;;;7.00;100.00
6038;BME280;3047;42.600;23.470;2023-02-28T05:25:59;93522.22;;;6.85;100.00
6038;BME280;3047;42.600;23.470;2023-02-28T05:28:26;93561.34;;;7.13;100.00
6038;BME280;3047;42.600;23.470;2023-02-28T05:30:54;93563.78;;;7.21;100.00
6038;BME280;3047;42.600;23.470;2023-02-28T05:33:20;93564.59;;;7.23;100.00
6038;BME280;3047;42.600;23.470;2023-02-28T05:35:47;93563.69;;;7.33;100.00
6038;BME280;3047;42.600;23.470;2023-02-28T05:38:16;93545.34;;;7.21;100.00
6038;BME280;3047;42.600;23.470;2023-02-28T05:40:43;93582.84;;;7.47;100.00
6038;BME280;3047;42.600;23.470;2023-02-28T05:43:10;93587.09;;;7.37;100.00
6038;BME280;3047;42.600;23.470;2023-02-28T05:45:38;93595.47;;;7.36;100.00
6038;BME280;3047;42.600;23.470;2023-02-28T05:48:07;93593.00;;;7.31;100.00
6038;BME280;3047;42.600;23.470;2023-02-28T05:50:34;93583.88;;;7.23;100.00
6038;BME280;3047;42.600;23.470;2023-02-28T05:53:01;93577.34;;;6.96;100.00
6038;BME280;3047;42.600;23.470;2023-02-28T05:55:27;93579.84;;;7.02;100.00
6038;BME280;3047;42.600;23.470;2023-02-28T05:57:54;93581.44;;;7.12;100.00
6038;BME280;3047;42.600;23.470;2023-02-28T06:00:22;93583.88;;;7.21;100.00
6038;BME280;3047;42.600;23.470;2023-02-28T06:02:49;93553.03;;;7.04;100.00
6038;BME280;3047;42.600;23.470;2023-02-28T06:05:18;93587.19;;;7.26;100.00
6038;BME280;3047;42.600;23.470;2023-02-28T06:07:44;93589.69;;;7.28;100.00
6038;BME280;3047;42.600;23.470;2023-02-28T06:10:12;93588.03;;;7.27;100.00
6038;BME280;3047;42.600;23.470;2023-02-28T06:12:39;93584.63;;;7.32;100.00
6038;BME280;3047;42.600;23.470;2023-02-28T06:15:07;93587.13;;;7.32;100.00
6038;BME280;3047;42.600;23.470;2023-02-28T06:17:38;93596.22;;;7.50;100.00
6038;BME280;3047;42.600;23.470;2023-02-28T06:20:05;93597.81;;;7.59;100.00
6038;BME280;3047;42.600;23.470;2023-02-28T06:22:34;93572.78;;;7.47;100.00
6038;BME280;3047;42.600;23.470;2023-02-28T06:25:01;93605.31;;;7.60;100.00
6038;BME280;3047;42.600;23.470;2023-02-28T06:27:28;93592.63;;;7.76;100.00
6038;BME280;3047;42.600;23.470;2023-02-28T06:29:54;93578.38;;;7.73;100.00
6038;BME280;3047;42.600;23.470;2023-02-28T06:32:22;93563.38;;;7.65;100.00
6038;BME280;3047;42.600;23.470;2023-02-28T06:34:49;93535.88;;;7.50;100.00
6038;BME280;3047;42.600;23.470;2023-02-28T06:37:15;93606.56;;;8.04;100.00
6038;BME280;3047;42.600;23.470;2023-02-28T06:39:44;93604.84;;;8.09;100.00
6038;BME280;3047;42.600;23.470;2023-02-28T06:42:11;93584.94;;;7.91;100.00
6038;BME280;3047;42.600;23.470;2023-02-28T06:44:38;93603.25;;;8.01;100.00
6038;BME280;3047;42.600;23.470;2023-02-28T06:47:05;93574.09;;;7.84;100.00
6038;BME280;3047;42.600;23.470;2023-02-28T06:49:34;93612.34;;;8.15;100.00
6038;BME280;3047;42.600;23.470;2023-02-28T06:52:01;93620.00;;;8.02;100.00
6038;BME280;3047;42.600;23.470;2023-02-28T06:54:28;93617.59;;;7.92;100.00
6038;BME280;3047;42.600;23.470;2023-02-28T06:56:57;93614.09;;;8.07;100.00
6038;BME280;3047;42.600;23.470;2023-02-28T06:59:24;93611.47;;;8.16;100.00
6038;BME280;3047;42.600;23.470;2023-02-28T07:01:50;93573.19;;;7.88;100.00
6038;BME280;3047;42.600;23.470;2023-02-28T07:04:17;93611.44;;;8.21;100.00
6038;BME280;3047;42.600;23.470;2023-02-28T07:06:44;93617.34;;;8.17;100.00
6038;BME280;3047;42.600;23.470;2023-02-28T07:09:10;93619.97;;;8.08;100.00
6038;BME280;3047;42.600;23.470;2023-02-28T07:11:38;93599.88;;;8.02;100.00
6038;BME280;3047;42.600;23.470;2023-02-28T07:14:07;93578.19;;;7.95;100.00
6038;BME280;3047;42.600;23.470;2023-02-28T07:16:33;93615.53;;;8.28;100.00
6038;BME280;3047;42.600;23.470;2023-02-28T07:19:00;93620.56;;;8.31;100.00
6038;BME280;3047;42.600;23.470;2023-02-28T07:21:27;93612.16;;;8.32;100.00
6038;BME280;3047;42.600;23.470;2023-02-28T07:23:55;93607.88;;;8.40;100.00
6038;BME280;3047;42.600;23.470;2023-02-28T07:26:22;93609.50;;;8.45;100.00
6038;BME280;3047;42.600;23.470;2023-02-28T07:28:49;93593.66;;;8.35;100.00
6038;BME280;3047;42.600;23.470;2023-02-28T07:31:17;93607.81;;;8.45;100.00
6038;BME280;3047;42.600;23.470;2023-02-28T07:33:44;93623.00;;;8.40;100.00
6038;BME280;3047;42.600;23.470;2023-02-28T07:36:12;93612.16;;;8.32;100.00
6038;BME280;3047;42.600;23.470;2023-02-28T07:38:41;93618.81;;;8.38;100.00
6038;BME280;3047;42.600;23.470;2023-02-28T07:41:09;93615.31;;;8.51;100.00
6038;BME280;3047;42.600;23.470;2023-02-28T07:43:36;93613.53;;;8.59;100.00
6038;BME280;3047;42.600;23.470;2023-02-28T07:46:04;93586.00;;;8.47;100.00
6038;BME280;3047;42.600;23.470;2023-02-28T07:48:32;93598.44;;;8.59;100.00
6038;BME280;3047;42.600;23.470;2023-02-28T07:50:59;93604.19;;;8.68;100.00
6038;BME280;3047;42.600;23.470;2023-02-28T07:53:26;93589.00;;;8.74;100.00
6038;BME280;3047;42.600;23.470;2023-02-28T07:55:55;93552.53;;;8.34;100.00
6038;BME280;3047;42.600;23.470;2023-02-28T07:58:22;93598.31;;;8.69;100.00
6038;BME280;3047;42.600;23.470;2023-02-28T08:00:49;93597.28;;;8.82;100.00
6038;BME280;3047;42.600;23.470;2023-02-28T08:03:17;93544.84;;;8.47;100.00
6038;BME280;3047;42.600;23.470;2023-02-28T08:05:45;93602.34;;;8.80;100.00
6038;BME280;3047;42.600;23.470;2023-02-28T08:08:13;93601.44;;;8.84;100.00
6038;BME280;3047;42.600;23.470;2023-02-28T08:10:40;93604.66;;;8.96;100.00
6038;BME280;3047;42.600;23.470;2023-02-28T08:13:07;93608.13;;;8.88;100.00
6038;BME280;3047;42.600;23.470;2023-02-28T08:15:34;93549.84;;;8.51;100.00
6038;BME280;3047;42.600;23.470;2023-02-28T08:18:01;93606.50;;;8.84;100.00
6038;BME280;3047;42.600;23.470;2023-02-28T08:20:28;93596.41;;;8.84;100.00
6038;BME280;3047;42.600;23.470;2023-02-28T08:22:57;93599.56;;;8.99;100.00
6038;BME280;3047;42.600;23.470;2023-02-28T08:25:24;93597.00;;;9.02;100.00
6038;BME280;3047;42.600;23.470;2023-02-28T08:27:51;93560.56;;;8.65;100.00
6038;BME280;3047;42.600;23.470;2023-02-28T08:30:18;93617.09;;;9.08;100.00
6038;BME280;3047;42.600;23.470;2023-02-28T08:32:45;93615.53;;;8.98;100.00
6038;BME280;3047;42.600;23.470;2023-02-28T08:35:12;93613.84;;;9.00;100.00
6038;BME280;3047;42.600;23.470;2023-02-28T08:37:38;93623.75;;;9.10;100.00
6038;BME280;3047;42.600;23.470;2023-02-28T08:40:08;93615.34;;;9.11;100.00
6038;BME280;3047;42.600;23.470;2023-02-28T08:42:35;93626.16;;;9.18;100.00
6038;BME280;3047;42.600;23.470;2023-02-28T08:45:02;93622.03;;;9.14;100.00
6038;BME280;3047;42.600;23.470;2023-02-28T08:47:29;93633.09;;;9.04;100.00
6038;BME280;3047;42.600;23.470;2023-02-28T08:49:55;93616.41;;;8.97;100.00
6038;BME280;3047;42.600;23.470;2023-02-28T08:52:22;93618.16;;;8.91;100.00
6038;BME280;3047;42.600;23.470;2023-02-28T08:54:49;93613.84;;;9.00;100.00
6038;BME280;3047;42.600;23.470;2023-02-28T08:57:17;93614.69;;;9.00;100.00
6038;BME280;3047;42.600;23.470;2023-02-28T08:59:44;93621.41;;;9.00;100.00
6038;BME280;3047;42.600;23.470;2023-02-28T09:02:12;93595.53;;;8.87;100.00
6038;BME280;3047;42.600;23.470;2023-02-28T09:04:39;93628.97;;;8.98;100.00
6038;BME280;3047;42.600;23.470;2023-02-28T09:07:06;93626.47;;;8.97;100.00
6038;BME280;3047;42.600;23.470;2023-02-28T09:09:32;93627.22;;;9.03;100.00
6038;BME280;3047;42.600;23.470;2023-02-28T09:11:59;93621.41;;;9.00;100.00
6038;BME280;3047;42.600;23.470;2023-02-28T09:14:28;93626.97;;;9.22;100.00
6038;BME280;3047;42.600;23.470;2023-02-28T09:16:56;93646.25;;;9.24;100.00
6038;BME280;3047;42.600;23.470;2023-02-28T09:19:22;93626.25;;;9.13;100.00
6038;BME280;3047;42.600;23.470;2023-02-28T09:21:49;93630.28;;;9.25;100.00
6038;BME280;3047;42.600;23.470;2023-02-28T09:24:17;93624.38;;;9.26;100.00
6038;BME280;3047;42.600;23.470;2023-02-28T09:26:45;93632.09;;;9.15;100.00
6038;BME280;3047;42.600;23.470;2023-02-28T09:29:12;93639.78;;;9.08;100.00
6038;BME280;3047;42.600;23.470;2023-02-28T09:31:41;93642.28;;;9.06;100.00
6038;BME280;3047;42.600;23.470;2023-02-28T09:34:07;93635.69;;;8.98;100.00
6038;BME280;3047;42.600;23.470;2023-02-28T09:36:34;93638.22;;;8.98;100.00
6038;BME280;3047;42.600;23.470;2023-02-28T09:39:03;93626.53;;;8.90;100.00
6038;BME280;3047;42.600;23.470;2023-02-28T09:41:37;93637.31;;;9.02;100.00
6038;BME280;3047;42.600;23.470;2023-02-28T09:44:17;93623.78;;;9.07;100.00
6038;BME280;3047;42.600;23.470;2023-02-28T09:46:50;93577.00;;;8.91;100.00
6038;BME280;3047;42.600;23.470;2023-02-28T09:49:22;93632.69;;;9.31;100.00
6038;BME280;3047;42.600;23.470;2023-02-28T09:51:54;93625.19;;;9.28;100.00
6038;BME280;3047;42.600;23.470;2023-02-28T09:54:24;93629.28;;;9.34;100.00
6038;BME280;3047;42.600;23.470;2023-02-28T09:56:57;93622.59;;;9.33;100.00
6038;BME280;3047;42.600;23.470;2023-02-28T09:59:36;93625.13;;;9.33;100.00
6038;BME280;3047;42.600;23.470;2023-02-28T10:02:17;93618.53;;;9.23;100.00
6038;BME280;3047;42.600;23.470;2023-02-28T10:04:50;93612.91;;;9.05;100.00
6038;BME280;3047;42.600;23.470;2023-02-28T10:07:37;93611.03;;;9.18;100.00
6038;BME280;3047;42.600;23.470;2023-02-28T10:10:18;93613.41;;;9.27;100.00
6038;BME280;3047;42.600;23.470;2023-02-28T10:12:46;93610.84;;;9.32;100.00
6038;BME280;3047;42.600;23.470;2023-02-28T10:15:14;93625.03;;;9.37;100.00
6038;BME280;3047;42.600;23.470;2023-02-28T10:17:46;93616.81;;;9.26;100.00
6038;BME280;3047;42.600;23.470;2023-02-28T10:20:17;93614.25;;;9.29;100.00
6038;BME280;3047;42.600;23.470;2023-02-28T10:22:52;93605.91;;;9.26;100.00
6038;BME280;3047;42.600;23.470;2023-02-28T10:25:22;93613.38;;;9.30;100.00
6038;BME280;3047;42.600;23.470;2023-02-28T10:27:49;93574.25;;;9.08;100.00
6038;BME280;3047;42.600;23.470;2023-02-28T10:30:16;93612.44;;;9.37;100.00
6038;BME280;3047;42.600;23.470;2023-02-28T10:32:49;93605.59;;;9.46;100.00
6038;BME280;3047;42.600;23.470;2023-02-28T10:35:20;93610.47;;;9.55;100.00
6038;BME280;3047;42.600;23.470;2023-02-28T10:37:49;93596.91;;;9.62;100.00
6038;BME280;3047;42.600;23.470;2023-02-28T10:40:29;93591.84;;;9.63;100.00
6038;BME280;3047;42.600;23.470;2023-02-28T10:42:57;93599.31;;;9.70;100.00
6038;BME280;3047;42.600;23.470;2023-02-28T10:45:26;93582.53;;;9.67;100.00
6038;BME280;3047;42.600;23.470;2023-02-28T10:47:56;93592.66;;;9.64;100.00
6038;BME280;3047;42.600;23.470;2023-02-28T10:50:29;93583.44;;;9.64;100.00
6038;BME280;3047;42.600;23.470;2023-02-28T10:53:07;93584.88;;;9.76;100.00
6038;BME280;3047;42.600;23.470;2023-02-28T10:55:35;93571.31;;;9.85;100.00
6038;BME280;3047;42.600;23.470;2023-02-28T10:58:02;93533.56;;;9.79;100.00
6038;BME280;3047;42.600;23.470;2023-02-28T11:00:32;93575.22;;;10.01;100.00
6038;BME280;3047;42.600;23.470;2023-02-28T11:03:01;93573.50;;;10.02;100.00
6038;BME280;3047;42.600;23.470;2023-02-28T11:05:29;93574.38;;;10.01;100.00
6038;BME280;3047;42.600;23.470;2023-02-28T11:08:02;93551.78;;;9.95;100.00
6038;BME280;3047;42.600;23.470;2023-02-28T11:10:32;93568.41;;;10.05;100.00
6038;BME280;3047;42.600;23.470;2023-02-28T11:13:00;93539.56;;;9.72;100.00
6038;BME280;3047;42.600;23.470;2023-02-28T11:15:28;93557.94;;;9.78;100.00
6038;BME280;3047;42.600;23.470;2023-02-28T11:17:58;93555.59;;;9.68;100.00
6038;BME280;3047;42.600;23.470;2023-02-28T11:20:28;93549.03;;;9.59;100.00
6038;BME280;3047;42.600;23.470;2023-02-28T11:22:56;93507.50;;;9.32;100.00
6038;BME280;3047;42.600;23.470;2023-02-28T11:25:25;93533.75;;;9.68;100.00
6038;BME280;3047;42.600;23.470;2023-02-28T11:27:53;93531.09;;;9.76;100.00
6038;BME280;3047;42.600;23.470;2023-02-28T11:30:33;93538.78;;;9.70;100.00
6038;BME280;3047;42.600;23.470;2023-02-28T11:33:01;93542.81;;;9.78;100.00
6038;BME280;3047;42.600;23.470;2023-02-28T11:35:31;93540.34;;;9.77;100.00
6038;BME280;3047;42.600;23.470;2023-02-28T11:38:01;93544.38;;;9.85;100.00
6038;BME280;3047;42.600;23.470;2023-02-28T11:40:34;93540.16;;;9.86;100.00
6038;BME280;3047;42.600;23.470;2023-02-28T11:43:13;93543.50;;;9.86;100.00
6038;BME280;3047;42.600;23.470;2023-02-28T11:46:03;93456.22;;;9.33;100.00
6038;BME280;3047;42.600;23.470;2023-02-28T11:48:40;93536.94;;;9.76;100.00
6038;BME280;3047;42.600;23.470;2023-02-28T11:51:15;93506.84;;;9.69;100.00
6038;BME280;3047;42.600;23.470;2023-02-28T11:53:57;93534.34;;;9.82;100.00
6038;BME280;3047;42.600;23.470;2023-02-28T11:56:31;93522.50;;;9.86;100.00
6038;BME280;3047;42.600;23.470;2023-02-28T12:02:06;93530.03;;;9.87;100.00
6038;BME280;3047;42.600;23.470;2023-02-28T12:04:52;93470.94;;;9.54;100.00
6038;BME280;3047;42.600;23.470;2023-02-28T12:07:31;93527.31;;;9.98;100.00
6038;BME280;3047;42.600;23.470;2023-02-28T12:10:06;93488.06;;;9.83;100.00
6038;BME280;3047;42.600;23.470;2023-02-28T12:12:44;93522.66;;;10.22;100.00
6038;BME280;3047;42.600;23.470;2023-02-28T12:15:41;93519.59;;;10.06;100.00
6038;BME280;3047;42.600;23.470;2023-02-28T12:18:36;93492.56;;;9.68;100.00
6038;BME280;3047;42.600;23.470;2023-02-28T12:21:13;93528.69;;;9.70;100.00
6038;BME280;3047;42.600;23.470;2023-02-28T12:24:01;93486.91;;;9.55;100.00
6038;BME280;3047;42.600;23.470;2023-02-28T12:26:36;93510.94;;;9.74;100.00
6038;BME280;3047;42.600;23.470;2023-02-28T12:29:10;93522.53;;;9.83;100.00
6038;BME280;3047;42.600;23.470;2023-02-28T12:31:44;93517.59;;;9.78;100.00
6038;BME280;3047;42.600;23.470;2023-02-28T12:34:17;93519.69;;;10.00;100.00
6038;BME280;3047;42.600;23.470;2023-02-28T12:36:47;93529.69;;;10.06;100.00
6038;BME280;3047;42.600;23.470;2023-02-28T12:39:20;93517.84;;;10.09;100.00
6038;BME280;3047;42.600;23.470;2023-02-28T12:41:53;93497.06;;;9.97;100.00
6038;BME280;3047;42.600;23.470;2023-02-28T12:44:25;93518.72;;;10.07;100.00
6038;BME280;3047;42.600;23.470;2023-02-28T12:46:56;93511.06;;;10.11;100.00
6038;BME280;3047;42.600;23.470;2023-02-28T12:49:29;93457.00;;;9.80;100.00
6038;BME280;3047;42.600;23.470;2023-02-28T12:51:57;93512.81;;;10.08;100.00
6038;BME280;3047;42.600;23.470;2023-02-28T12:54:32;93509.13;;;10.24;100.00
6038;BME280;3047;42.600;23.470;2023-02-28T12:57:06;93516.56;;;10.32;100.00
6038;BME280;3047;42.600;23.470;2023-02-28T12:59:38;93512.09;;;10.45;100.00
6038;BME280;3047;42.600;23.470;2023-02-28T13:02:33;93518.06;;;10.40;100.00
6038;BME280;3047;42.600;23.470;2023-02-28T13:05:24;93501.31;;;10.36;100.00
6038;BME280;3047;42.600;23.470;2023-02-28T13:08:10;93491.41;;;10.27;100.00
6038;BME280;3047;42.600;23.470;2023-02-28T13:10:46;93521.41;;;10.43;100.00
6038;BME280;3047;42.600;23.470;2023-02-28T13:13:17;93516.34;;;10.43;100.00
6038;BME280;3047;42.600;23.470;2023-02-28T13:16:02;93507.44;;;10.26;100.00
6038;BME280;3047;42.600;23.470;2023-02-28T13:18:35;93517.28;;;10.37;100.00
6038;BME280;3047;42.600;23.470;2023-02-28T13:21:06;93491.22;;;9.95;100.00
6038;BME280;3047;42.600;23.470;2023-02-28T13:23:40;93513.00;;;9.99;100.00
6038;BME280;3047;42.600;23.470;2023-02-28T13:26:08;93485.66;;;9.76;100.00
6038;BME280;3047;42.600;23.470;2023-02-28T13:29:11;93502.34;;;9.84;100.00
6038;BME280;3047;42.600;23.470;2023-02-28T13:38:13;93515.09;;;9.77;100.00
6038;BME280;3047;42.600;23.470;2023-02-28T13:40:42;93508.38;;;9.77;100.00
6038;BME280;3047;42.600;23.470;2023-02-28T13:43:10;93503.31;;;9.77;100.00
6038;BME280;3047;42.600;23.470;2023-02-28T13:45:36;93490.16;;;9.61;100.00